Time;durP1;ratioP1;P1;durP2;ratioP2;P2;SDS_P1;SDS_P2;PMS_P1;PMS_P2;Temp;Humidity;BMP_temperature;BMP_pressure;BME280_temperature;BME280_humidity;BME280_pressure;Samples;Min_cycle;Max_cycle;Signal;HPM_P1;HPM_P2
2021/01/14 00:00:56;;;;;;;;;;;;;;;;;;5093788;28;20289;-58
2021/01/14 00:03:22;;;;;;;;;;;;;;;;;;5093965;28;19916;-58
2021/01/14 00:05:48;;;;;;;;;;;;;;;;;;5094154;28;19998;-49
2021/01/14 00:08:15;;;;;;;;;;;;;;;;;;5093951;28;19916;-48
2021/01/14 00:10:41;;;;;;;;;;;;;;;;;;5093699;28;19916;-55
2021/01/14 00:13:07;;;;;;;;;;;;;;;;;;5093741;28;19971;-57
2021/01/14 00:15:33;;;;;;;;;;;;;;;;;;5093837;28;19961;-57
2021/01/14 00:17:59;;;;;;;;;;;;;;;;;;5093612;28;20275;-58
2021/01/14 00:20:24;;;;;;;;;;;;;;;;;;5093776;28;20012;-58
2021/01/14 00:22:50;;;;;;;;;;;;;;;;;;5093451;28;19908;-58
2021/01/14 00:25:16;;;;;;;;;;;;;;;;;;5093713;28;19908;-55
2021/01/14 00:27:42;;;;;;;;;;;;;;;;;;5093866;28;20272;-58
2021/01/14 00:30:08;;;;;;;;;;;;;;;;;;5093657;28;19915;-57
2021/01/14 00:32:34;;;;;;;;;;;;;;;;;;5093562;28;20045;-58
2021/01/14 00:35:00;;;;;;;;;;;;;;;;;;5093892;28;19915;-57
2021/01/14 00:40:11;;;;;;;;;;;;;;;;;;5094474;22;20347;-59
2021/01/14 00:42:37;;;;;;;;;;;;;;;;;;5052624;28;19996;-60
2021/01/14 00:45:04;;;;;;;;;;;;;;;;;;5053195;28;19909;-60
2021/01/14 00:47:30;;;;;;;;;;;;;;;;;;5052890;28;19999;-59
2021/01/14 00:49:56;;;;;;;;;;;;;;;;;;5035314;28;19997;-60
2021/01/14 00:52:22;;;;;;;;;;;;;;;;;;5053038;28;20229;-60
2021/01/14 00:54:48;;;;;;;;;;;;;;;;;;5053598;28;19916;-59
2021/01/14 00:57:14;;;;;;;;;;;;;;;;;;5057159;28;20004;-60
2021/01/14 00:59:40;;;;;;;;;;;;;;;;;;5056453;28;20316;-59
2021/01/14 01:02:06;;;;;;;;;;;;;;;;;;5056619;28;19909;-60
2021/01/14 01:04:32;;;;;;;;;;;;;;;;;;5056932;28;19908;-59
2021/01/14 01:06:58;;;;;;;;;;;;;;;;;;5056906;28;19995;-60
2021/01/14 01:09:24;;;;;;;;;;;;;;;;;;5056747;28;19954;-60
2021/01/14 01:11:50;;;;;;;;;;;;;;;;;;5056878;28;20003;-60
2021/01/14 01:14:16;;;;;;;;;;;;;;;;;;5056640;28;19948;-60
2021/01/14 01:16:42;;;;;;;;;;;;;;;;;;5056730;28;19916;-60
2021/01/14 01:19:08;;;;;;;;;;;;;;;;;;5056257;28;19917;-60
2021/01/14 01:21:34;;;;;;;;;;;;;;;;;;5056617;28;19916;-60
2021/01/14 01:24:00;;;;;;;;;;;;;;;;;;5043394;28;20270;-60
2021/01/14 01:26:26;;;;;;;;;;;;;;;;;;5036422;28;19996;-60
2021/01/14 01:28:52;;;;;;;;;;;;;;;;;;5036520;28;19909;-60
2021/01/14 01:31:18;;;;;;;;;;;;;;;;;;5036321;28;20321;-60
2021/01/14 01:33:44;;;;;;;;;;;;;;;;;;5036285;28;20289;-59
2021/01/14 01:36:10;;;;;;;;;;;;;;;;;;5036075;28;19913;-60
2021/01/14 01:38:36;;;;;;;;;;;;;;;;;;5035866;28;19909;-59
2021/01/14 01:41:02;;;;;;;;;;;;;;;;;;5036256;28;19964;-59
2021/01/14 01:43:28;;;;;;;;;;;;;;;;;;5035959;28;20259;-60
2021/01/14 01:45:54;;;;;;;;;;;;;;;;;;5036098;28;19917;-60
2021/01/14 01:48:20;;;;;;;;;;;;;;;;;;5035800;28;19967;-60
2021/01/14 01:50:46;;;;;;;;;;;;;;;;;;5036190;28;19909;-60
2021/01/14 01:53:12;;;;;;;;;;;;;;;;;;5035900;28;19909;-59
2021/01/14 01:55:38;;;;;;;;;;;;;;;;;;5035799;28;19909;-60
2021/01/14 01:58:04;;;;;;;;;;;;;;;;;;5035759;28;19963;-60
2021/01/14 02:00:30;;;;;;;;;;;;;;;;;;5035657;28;20344;-59
2021/01/14 02:02:56;;;;;;;;;;;;;;;;;;5035712;28;19909;-60
2021/01/14 02:05:22;;;;;;;;;;;;;;;;;;5035990;28;19915;-59
2021/01/14 02:07:48;;;;;;;;;;;;;;;;;;5034761;28;19909;-59
2021/01/14 02:10:14;;;;;;;;;;;;;;;;;;5035432;28;19909;-60
2021/01/14 02:12:39;;;;;;;;;;;;;;;;;;5035497;28;19913;-60
2021/01/14 02:15:05;;;;;;;;;;;;;;;;;;5035503;28;19909;-60
2021/01/14 02:17:31;;;;;;;;;;;;;;;;;;5035428;28;19913;-60
2021/01/14 02:20:01;;;;;;;;;;;;;;;;;;5035238;28;19964;-60
2021/01/14 02:22:27;;;;;;;;;;;;;;;;;;5035595;28;20281;-60
2021/01/14 02:24:53;;;;;;;;;;;;;;;;;;5035468;28;20239;-60
2021/01/14 02:27:19;;;;;;;;;;;;;;;;;;5035470;28;19956;-60
2021/01/14 02:29:45;;;;;;;;;;;;;;;;;;5035122;28;19909;-60
2021/01/14 02:32:10;;;;;;;;;;;;;;;;;;5035171;28;19948;-60
2021/01/14 02:34:36;;;;;;;;;;;;;;;;;;5035019;28;19909;-59
2021/01/14 02:37:02;;;;;;;;;;;;;;;;;;5034999;28;20428;-60
2021/01/14 02:39:28;;;;;;;;;;;;;;;;;;5034855;28;19917;-59
2021/01/14 02:41:54;;;;;;;;;;;;;;;;;;5034828;28;19925;-60
2021/01/14 02:44:20;;;;;;;;;;;;;;;;;;5034780;28;20414;-59
2021/01/14 02:46:46;;;;;;;;;;;;;;;;;;5035167;28;19909;-60
2021/01/14 02:49:12;;;;;;;;;;;;;;;;;;5034992;28;19956;-59
2021/01/14 02:51:38;;;;;;;;;;;;;;;;;;5034803;28;19999;-60
2021/01/14 02:54:05;;;;;;;;;;;;;;;;;;5034708;28;19920;-59
2021/01/14 02:56:31;;;;;;;;;;;;;;;;;;5034642;28;19916;-60
2021/01/14 02:58:57;;;;;;;;;;;;;;;;;;5034485;28;19917;-60
2021/01/14 03:01:23;;;;;;;;;;;;;;;;;;5034485;28;19967;-59
2021/01/14 03:03:49;;;;;;;;;;;;;;;;;;5034838;28;19916;-60
2021/01/14 03:06:15;;;;;;;;;;;;;;;;;;5034464;28;20325;-60
2021/01/14 03:08:41;;;;;;;;;;;;;;;;;;5034466;28;19917;-60
2021/01/14 03:11:07;;;;;;;;;;;;;;;;;;5034338;28;20297;-60
2021/01/14 03:13:33;;;;;;;;;;;;;;;;;;5034594;28;19909;-60
2021/01/14 03:15:59;;;;;;;;;;;;;;;;;;5034483;28;20362;-60
2021/01/14 03:18:25;;;;;;;;;;;;;;;;;;5034243;28;19916;-60
2021/01/14 03:20:51;;;;;;;;;;;;;;;;;;5034056;28;19917;-60
2021/01/14 03:23:17;;;;;;;;;;;;;;;;;;5034069;28;19936;-60
2021/01/14 03:25:43;;;;;;;;;;;;;;;;;;5034271;28;19915;-60
2021/01/14 03:28:09;;;;;;;;;;;;;;;;;;5034072;28;19910;-60
2021/01/14 03:30:35;;;;;;;;;;;;;;;;;;5034305;28;19956;-60
2021/01/14 03:33:01;;;;;;;;;;;;;;;;;;5034023;28;19909;-60
2021/01/14 03:35:26;;;;;;;;;;;;;;;;;;5034150;28;19940;-59
2021/01/14 03:37:52;;;;;;;;;;;;;;;;;;5033946;28;20320;-60
2021/01/14 03:40:18;;;;;;;;;;;;;;;;;;5033546;28;19925;-60
2021/01/14 03:42:44;;;;;;;;;;;;;;;;;;5033926;28;19986;-60
2021/01/14 03:45:10;;;;;;;;;;;;;;;;;;5034140;28;19905;-60
2021/01/14 03:47:36;;;;;;;;;;;;;;;;;;5033870;28;19909;-60
2021/01/14 03:50:02;;;;;;;;;;;;;;;;;;5033958;28;19905;-60
2021/01/14 03:52:28;;;;;;;;;;;;;;;;;;5033815;28;19909;-60
2021/01/14 03:54:54;;;;;;;;;;;;;;;;;;5033889;28;19912;-60
2021/01/14 03:57:20;;;;;;;;;;;;;;;;;;5033858;28;19915;-60
2021/01/14 03:59:46;;;;;;;;;;;;;;;;;;5033630;28;20023;-60
2021/01/14 04:02:12;;;;;;;;;;;;;;;;;;5033615;28;19909;-60
2021/01/14 04:04:38;;;;;;;;;;;;;;;;;;5033963;28;20449;-60
2021/01/14 04:07:04;;;;;;;;;;;;;;;;;;5033808;28;19909;-60
2021/01/14 04:09:30;;;;;;;;;;;;;;;;;;5033640;28;20012;-60
2021/01/14 04:11:56;;;;;;;;;;;;;;;;;;5033859;28;19955;-60
2021/01/14 04:14:22;;;;;;;;;;;;;;;;;;5033759;28;20380;-60
2021/01/14 04:16:48;;;;;;;;;;;;;;;;;;5033667;28;19997;-60
2021/01/14 04:19:14;;;;;;;;;;;;;;;;;;5033472;28;19975;-60
2021/01/14 04:21:40;;;;;;;;;;;;;;;;;;5033481;28;19913;-60
2021/01/14 04:24:06;;;;;;;;;;;;;;;;;;5015697;28;20707;-60
2021/01/14 04:26:32;;;;;;;;;;;;;;;;;;5033626;28;19909;-60
2021/01/14 04:28:58;;;;;;;;;;;;;;;;;;5033392;28;19909;-59
2021/01/14 04:31:24;;;;;;;;;;;;;;;;;;5036471;28;19932;-60
2021/01/14 04:33:50;;;;;;;;;;;;;;;;;;5037931;28;20007;-60
2021/01/14 04:36:16;;;;;;;;;;;;;;;;;;5037265;28;19909;-61
2021/01/14 04:38:43;;;;;;;;;;;;;;;;;;5037204;28;19913;-61
2021/01/14 04:41:09;;;;;;;;;;;;;;;;;;5037072;28;20005;-60
2021/01/14 04:43:35;;;;;;;;;;;;;;;;;;5037154;28;19916;-60
2021/01/14 04:46:04;;;;;;;;;;;;;;;;;;5037157;28;19909;-60
2021/01/14 04:48:30;;;;;;;;;;;;;;;;;;5037303;28;20016;-60
2021/01/14 04:50:56;;;;;;;;;;;;;;;;;;5037144;28;20370;-59
2021/01/14 04:53:22;;;;;;;;;;;;;;;;;;5037135;28;19909;-60
2021/01/14 04:55:48;;;;;;;;;;;;;;;;;;5037133;28;20359;-60
2021/01/14 04:58:14;;;;;;;;;;;;;;;;;;5037008;28;20381;-60
2021/01/14 05:00:40;;;;;;;;;;;;;;;;;;5019039;28;19921;-59
2021/01/14 05:03:06;;;;;;;;;;;;;;;;;;5036596;28;19910;-60
2021/01/14 05:05:33;;;;;;;;;;;;;;;;;;5036737;28;19909;-60
2021/01/14 05:07:59;;;;;;;;;;;;;;;;;;5036872;28;19963;-60
2021/01/14 05:10:25;;;;;;;;;;;;;;;;;;5036805;28;20329;-60
2021/01/14 05:12:51;;;;;;;;;;;;;;;;;;5036677;28;20008;-60
2021/01/14 05:15:17;;;;;;;;;;;;;;;;;;5036620;28;19909;-60
2021/01/14 05:17:43;;;;;;;;;;;;;;;;;;5036653;28;20270;-60
2021/01/14 05:20:09;;;;;;;;;;;;;;;;;;5036686;28;19917;-60
2021/01/14 05:22:35;;;;;;;;;;;;;;;;;;5036259;28;20255;-60
2021/01/14 05:25:01;;;;;;;;;;;;;;;;;;5036443;28;19910;-61
2021/01/14 05:27:27;;;;;;;;;;;;;;;;;;5036255;28;19909;-60
2021/01/14 05:29:53;;;;;;;;;;;;;;;;;;5036311;28;19909;-60
2021/01/14 05:32:19;;;;;;;;;;;;;;;;;;5036302;28;19909;-60
2021/01/14 05:34:44;;;;;;;;;;;;;;;;;;5036431;28;19964;-59
2021/01/14 05:37:10;;;;;;;;;;;;;;;;;;5036154;28;20304;-60
2021/01/14 05:39:36;;;;;;;;;;;;;;;;;;5035960;28;19922;-60
2021/01/14 05:42:02;;;;;;;;;;;;;;;;;;5035125;28;19924;-60
2021/01/14 05:44:28;;;;;;;;;;;;;;;;;;5036161;28;19909;-60
2021/01/14 05:46:54;;;;;;;;;;;;;;;;;;5035986;28;20298;-60
2021/01/14 05:49:20;;;;;;;;;;;;;;;;;;5035899;28;19913;-60
2021/01/14 05:51:46;;;;;;;;;;;;;;;;;;5013913;28;19960;-59
2021/01/14 05:54:12;;;;;;;;;;;;;;;;;;5012848;28;19945;-60
2021/01/14 05:56:38;;;;;;;;;;;;;;;;;;5014229;28;19955;-60
2021/01/14 05:59:04;;;;;;;;;;;;;;;;;;5013805;28;19980;-60
2021/01/14 06:01:30;;;;;;;;;;;;;;;;;;5014247;28;19910;-60
2021/01/14 06:03:56;;;;;;;;;;;;;;;;;;5014658;28;19980;-60
2021/01/14 06:06:22;;;;;;;;;;;;;;;;;;5015677;28;20354;-60
2021/01/14 06:08:48;;;;;;;;;;;;;;;;;;5015891;28;19921;-60
2021/01/14 06:11:14;;;;;;;;;;;;;;;;;;5016092;28;20042;-60
2021/01/14 06:13:40;;;;;;;;;;;;;;;;;;5015680;28;19957;-60
2021/01/14 06:16:06;;;;;;;;;;;;;;;;;;5015817;28;19909;-61
2021/01/14 06:18:32;;;;;;;;;;;;;;;;;;5015514;28;19916;-61
2021/01/14 06:20:58;;;;;;;;;;;;;;;;;;5015830;28;19917;-60
2021/01/14 06:23:24;;;;;;;;;;;;;;;;;;5015214;28;19975;-61
2021/01/14 06:25:50;;;;;;;;;;;;;;;;;;5015523;28;19919;-61
2021/01/14 06:28:16;;;;;;;;;;;;;;;;;;5015545;28;19953;-61
2021/01/14 06:30:42;;;;;;;;;;;;;;;;;;5015710;28;20425;-61
2021/01/14 06:33:08;;;;;;;;;;;;;;;;;;5015547;28;19922;-61
2021/01/14 06:35:34;;;;;;;;;;;;;;;;;;5015269;28;19910;-59
2021/01/14 06:38:00;;;;;;;;;;;;;;;;;;5015227;28;20017;-59
2021/01/14 06:40:26;;;;;;;;;;;;;;;;;;5015166;28;19925;-59
2021/01/14 06:42:52;;;;;;;;;;;;;;;;;;5015484;28;19906;-59
2021/01/14 06:45:18;;;;;;;;;;;;;;;;;;5015285;28;19917;-59
2021/01/14 06:47:44;;;;;;;;;;;;;;;;;;5015120;28;20386;-59
2021/01/14 06:50:10;;;;;;;;;;;;;;;;;;4997242;28;19935;-59
2021/01/14 06:52:36;;;;;;;;;;;;;;;;;;5014682;28;19966;-59
2021/01/14 06:55:02;;;;;;;;;;;;;;;;;;5014752;28;19909;-59
2021/01/14 06:57:28;;;;;;;;;;;;;;;;;;5017024;28;20413;-58
2021/01/14 06:59:54;;;;;;;;;;;;;;;;;;5034354;28;19940;-59
2021/01/14 07:02:20;;;;;;;;;;;;;;;;;;5034133;28;20358;-60
2021/01/14 07:04:46;;;;;;;;;;;;;;;;;;5032867;28;19963;-59
2021/01/14 07:07:12;;;;;;;;;;;;;;;;;;5033804;28;19910;-59
2021/01/14 07:09:38;;;;;;;;;;;;;;;;;;5034099;28;20321;-60
2021/01/14 07:12:04;;;;;;;;;;;;;;;;;;5033945;28;20366;-59
2021/01/14 07:14:30;;;;;;;;;;;;;;;;;;5033916;28;19920;-59
2021/01/14 07:16:56;;;;;;;;;;;;;;;;;;5033975;28;20329;-60
2021/01/14 07:19:22;;;;;;;;;;;;;;;;;;5033840;28;19917;-59
2021/01/14 07:21:48;;;;;;;;;;;;;;;;;;5016485;28;19967;-60
2021/01/14 07:24:18;;;;;;;;;;;;;;;;;;5033901;28;19913;-60
2021/01/14 07:26:44;;;;;;;;;;;;;;;;;;5034485;28;20320;-59
2021/01/14 07:29:11;;;;;;;;;;;;;;;;;;5034086;28;19914;-60
2021/01/14 07:31:37;;;;;;;;;;;;;;;;;;5033273;28;20439;-59
2021/01/14 07:34:03;;;;;;;;;;;;;;;;;;5034025;28;19909;-60
2021/01/14 07:36:29;;;;;;;;;;;;;;;;;;5033893;28;20443;-60
2021/01/14 07:38:55;;;;;;;;;;;;;;;;;;5033773;28;19916;-59
2021/01/14 07:41:21;;;;;;;;;;;;;;;;;;5033672;28;19967;-59
2021/01/14 07:43:47;;;;;;;;;;;;;;;;;;5033986;28;19947;-60
2021/01/14 07:46:13;;;;;;;;;;;;;;;;;;5033902;28;19910;-59
2021/01/14 07:48:39;;;;;;;;;;;;;;;;;;5033954;28;19913;-59
2021/01/14 07:51:05;;;;;;;;;;;;;;;;;;5033779;28;19913;-58
2021/01/14 07:53:31;;;;;;;;;;;;;;;;;;5033739;28;19910;-59
2021/01/14 07:56:00;;;;;;;;;;;;;;;;;;5033803;28;19948;-58
2021/01/14 07:58:26;;;;;;;;;;;;;;;;;;5033071;28;19994;-59
2021/01/14 08:00:52;;;;;;;;;;;;;;;;;;5015752;28;19935;-59
2021/01/14 08:03:18;;;;;;;;;;;;;;;;;;5033563;28;19909;-60
2021/01/14 08:05:44;;;;;;;;;;;;;;;;;;5032891;28;20373;-59
2021/01/14 08:08:10;;;;;;;;;;;;;;;;;;5033824;28;19920;-59
2021/01/14 08:10:36;;;;;;;;;;;;;;;;;;5033575;28;19909;-59
2021/01/14 08:13:02;;;;;;;;;;;;;;;;;;5033541;28;19999;-58
2021/01/14 08:15:28;;;;;;;;;;;;;;;;;;5033377;28;20312;-59
2021/01/14 08:17:54;;;;;;;;;;;;;;;;;;5033493;28;19913;-60
2021/01/14 08:20:20;;;;;;;;;;;;;;;;;;5032972;28;19921;-59
2021/01/14 08:22:46;;;;;;;;;;;;;;;;;;5033322;28;19992;-59
2021/01/14 08:25:12;;;;;;;;;;;;;;;;;;5033636;28;20038;-59
2021/01/14 08:27:38;;;;;;;;;;;;;;;;;;5033394;28;20400;-59
2021/01/14 08:30:04;;;;;;;;;;;;;;;;;;5033376;28;19910;-59
2021/01/14 08:32:30;;;;;;;;;;;;;;;;;;5033391;28;19967;-59
2021/01/14 08:34:56;;;;;;;;;;;;;;;;;;5033314;28;19952;-58
2021/01/14 08:37:22;;;;;;;;;;;;;;;;;;5033332;28;20329;-59
2021/01/14 08:39:48;;;;;;;;;;;;;;;;;;5033106;28;19921;-59
2021/01/14 08:42:14;;;;;;;;;;;;;;;;;;5033118;28;19959;-59
2021/01/14 08:44:40;;;;;;;;;;;;;;;;;;5033170;28;20354;-58
2021/01/14 08:47:06;;;;;;;;;;;;;;;;;;5033094;28;19916;-59
2021/01/14 08:49:34;;;;;;;;;;;;;;;;;;5033281;28;19915;-59
2021/01/14 08:52:00;;;;;;;;;;;;;;;;;;5032983;28;19917;-59
2021/01/14 08:54:26;;;;;;;;;;;;;;;;;;5033121;28;19910;-59
2021/01/14 08:56:52;;;;;;;;;;;;;;;;;;5033227;28;19910;-59
2021/01/14 08:59:18;;;;;;;;;;;;;;;;;;5033049;28;20007;-59
2021/01/14 09:01:44;;;;;;;;;;;;;;;;;;5033006;28;19932;-58
2021/01/14 09:04:10;;;;;;;;;;;;;;;;;;5032859;28;20382;-58
2021/01/14 09:06:39;;;;;;;;;;;;;;;;;;5031973;28;20434;-58
2021/01/14 09:09:05;;;;;;;;;;;;;;;;;;5015401;28;19913;-59
2021/01/14 09:11:31;;;;;;;;;;;;;;;;;;5032932;28;19916;-58
2021/01/14 09:13:57;;;;;;;;;;;;;;;;;;5033154;28;19909;-59
2021/01/14 09:16:23;;;;;;;;;;;;;;;;;;5034170;28;19910;-59
2021/01/14 09:18:49;;;;;;;;;;;;;;;;;;5036677;28;20263;-59
2021/01/14 09:21:15;;;;;;;;;;;;;;;;;;5036503;28;19913;-59
2021/01/14 09:23:41;;;;;;;;;;;;;;;;;;5036331;28;19994;-58
2021/01/14 09:26:07;;;;;;;;;;;;;;;;;;5036517;28;19910;-58
2021/01/14 09:28:33;;;;;;;;;;;;;;;;;;5036495;28;19944;-58
2021/01/14 09:30:59;;;;;;;;;;;;;;;;;;5036325;28;20336;-58
2021/01/14 09:33:25;;;;;;;;;;;;;;;;;;5036428;28;19909;-58
2021/01/14 09:35:51;;;;;;;;;;;;;;;;;;5036310;28;19913;-59
2021/01/14 09:38:17;;;;;;;;;;;;;;;;;;5036170;28;19909;-59
2021/01/14 09:40:43;;;;;;;;;;;;;;;;;;5035627;28;19925;-59
2021/01/14 09:43:09;;;;;;;;;;;;;;;;;;5036112;28;19955;-58
2021/01/14 09:45:35;;;;;;;;;;;;;;;;;;5035914;28;19999;-58
2021/01/14 09:48:01;;;;;;;;;;;;;;;;;;5035884;28;19971;-59
2021/01/14 09:50:27;;;;;;;;;;;;;;;;;;5035793;28;19915;-59
2021/01/14 09:52:53;;;;;;;;;;;;;;;;;;5035246;28;20350;-58
2021/01/14 09:55:19;;;;;;;;;;;;;;;;;;5035388;28;20281;-59
2021/01/14 09:57:45;;;;;;;;;;;;;;;;;;5034796;28;20404;-59
2021/01/14 10:00:11;;;;;;;;;;;;;;;;;;5035476;28;20293;-59
2021/01/14 10:02:37;;;;;;;;;;;;;;;;;;5036041;28;20301;-59
2021/01/14 10:05:03;;;;;;;;;;;;;;;;;;5035543;28;19916;-58
2021/01/14 10:07:29;;;;;;;;;;;;;;;;;;5035518;28;19913;-59
2021/01/14 10:09:55;;;;;;;;;;;;;;;;;;5017915;28;19916;-58
2021/01/14 10:12:21;;;;;;;;;;;;;;;;;;5035464;28;20392;-58
2021/01/14 10:14:47;;;;;;;;;;;;;;;;;;5035849;28;19909;-59
2021/01/14 10:17:13;;;;;;;;;;;;;;;;;;5035319;28;19920;-59
2021/01/14 10:19:40;;;;;;;;;;;;;;;;;;5035341;28;19917;-58
2021/01/14 10:22:06;;;;;;;;;;;;;;;;;;5035355;28;19945;-58
2021/01/14 10:24:32;;;;;;;;;;;;;;;;;;5035235;28;20381;-59
2021/01/14 10:26:58;;;;;;;;;;;;;;;;;;5035471;28;20433;-58
2021/01/14 10:29:24;;;;;;;;;;;;;;;;;;5034737;28;20013;-59
2021/01/14 10:31:50;;;;;;;;;;;;;;;;;;5016152;28;19909;-59
2021/01/14 10:34:16;;;;;;;;;;;;;;;;;;5032619;28;19924;-59
2021/01/14 10:36:42;;;;;;;;;;;;;;;;;;5034181;28;20003;-58
2021/01/14 10:39:08;;;;;;;;;;;;;;;;;;5034927;28;19913;-57
2021/01/14 10:41:34;;;;;;;;;;;;;;;;;;5034198;28;20275;-58
2021/01/14 10:44:00;;;;;;;;;;;;;;;;;;5023096;28;19913;-52
2021/01/14 10:46:29;;;;;;;;;;;;;;;;;;5022121;28;20205;-57
2021/01/14 10:48:55;;;;;;;;;;;;;;;;;;5034639;28;20270;-58
2021/01/14 10:51:21;;;;;;;;;;;;;;;;;;5032860;28;19913;-58
2021/01/14 10:53:47;;;;;;;;;;;;;;;;;;5028949;28;20310;-58
2021/01/14 10:56:14;;;;;;;;;;;;;;;;;;5016319;28;19965;-59
2021/01/14 10:58:40;;;;;;;;;;;;;;;;;;5017508;28;19913;-58
2021/01/14 11:01:06;;;;;;;;;;;;;;;;;;5016982;28;20382;-56
2021/01/14 11:03:32;;;;;;;;;;;;;;;;;;5016112;28;19909;-56
2021/01/14 11:05:58;;;;;;;;;;;;;;;;;;5014818;28;19910;-59
2021/01/14 11:08:24;;;;;;;;;;;;;;;;;;5014700;28;20355;-58
2021/01/14 11:10:50;;;;;;;;;;;;;;;;;;5014734;28;19921;-59
2021/01/14 11:13:16;;;;;;;;;;;;;;;;;;5014592;28;19910;-58
2021/01/14 11:15:42;;;;;;;;;;;;;;;;;;5014743;28;19909;-58
2021/01/14 11:18:08;;;;;;;;;;;;;;;;;;5014465;28;19916;-58
2021/01/14 11:20:34;;;;;;;;;;;;;;;;;;5029529;28;19921;-58
2021/01/14 11:23:00;;;;;;;;;;;;;;;;;;5034259;28;19916;-58
2021/01/14 11:25:26;;;;;;;;;;;;;;;;;;5034488;28;19910;-53
2021/01/14 11:27:53;;;;;;;;;;;;;;;;;;5027896;28;20453;-57
2021/01/14 11:30:18;;;;;;;;;;;;;;;;;;5021284;28;19913;-56
2021/01/14 11:32:44;;;;;;;;;;;;;;;;;;5033935;28;19909;-59
2021/01/14 11:35:10;;;;;;;;;;;;;;;;;;5034001;28;19909;-59
2021/01/14 11:37:36;;;;;;;;;;;;;;;;;;5023771;28;19936;-58
2021/01/14 11:40:02;;;;;;;;;;;;;;;;;;5032278;28;20285;-59
2021/01/14 11:42:28;;;;;;;;;;;;;;;;;;5034167;28;19909;-58
2021/01/14 11:44:54;;;;;;;;;;;;;;;;;;5033937;28;20404;-59
2021/01/14 11:47:20;;;;;;;;;;;;;;;;;;5033749;28;19913;-59
2021/01/14 11:49:46;;;;;;;;;;;;;;;;;;5017830;28;19913;-59
2021/01/14 11:52:14;;;;;;;;;;;;;;;;;;5031689;28;19913;-58
2021/01/14 11:54:40;;;;;;;;;;;;;;;;;;5031329;28;19964;-58
2021/01/14 11:57:06;;;;;;;;;;;;;;;;;;5031256;28;19917;-59
2021/01/14 11:59:32;;;;;;;;;;;;;;;;;;5033672;28;20329;-58
2021/01/14 12:01:58;;;;;;;;;;;;;;;;;;5030252;28;19913;-59
2021/01/14 12:04:24;;;;;;;;;;;;;;;;;;5032546;28;19932;-58
2021/01/14 12:06:50;;;;;;;;;;;;;;;;;;5033145;28;20355;-56
2021/01/14 12:09:16;;;;;;;;;;;;;;;;;;5025137;28;19910;-58
2021/01/14 12:11:42;;;;;;;;;;;;;;;;;;5014053;28;20009;-59
2021/01/14 12:14:08;;;;;;;;;;;;;;;;;;5013774;28;19909;-59
2021/01/14 12:16:34;;;;;;;;;;;;;;;;;;5013817;28;19916;-58
2021/01/14 12:19:00;;;;;;;;;;;;;;;;;;5013743;28;19914;-59
2021/01/14 12:21:26;;;;;;;;;;;;;;;;;;5014047;28;20413;-59
2021/01/14 12:23:52;;;;;;;;;;;;;;;;;;5013660;28;20005;-59
2021/01/14 12:26:19;;;;;;;;;;;;;;;;;;5013778;28;20366;-59
2021/01/14 12:28:45;;;;;;;;;;;;;;;;;;5013791;28;20008;-59
2021/01/14 12:31:11;;;;;;;;;;;;;;;;;;5013704;28;20004;-59
2021/01/14 12:33:37;;;;;;;;;;;;;;;;;;5013685;28;19948;-59
2021/01/14 12:36:03;;;;;;;;;;;;;;;;;;5013774;28;19963;-59
2021/01/14 12:38:29;;;;;;;;;;;;;;;;;;5013459;28;19909;-59
2021/01/14 12:40:55;;;;;;;;;;;;;;;;;;5013223;28;19944;-59
2021/01/14 12:43:21;;;;;;;;;;;;;;;;;;5013781;28;19909;-59
2021/01/14 12:45:47;;;;;;;;;;;;;;;;;;5013721;28;20409;-59
2021/01/14 12:48:13;;;;;;;;;;;;;;;;;;4995948;28;19952;-59
2021/01/14 12:50:39;;;;;;;;;;;;;;;;;;5013824;28;20330;-59
2021/01/14 12:53:05;;;;;;;;;;;;;;;;;;5017194;28;19912;-59
2021/01/14 12:55:31;;;;;;;;;;;;;;;;;;5017573;28;19963;-59
2021/01/14 12:57:57;;;;;;;;;;;;;;;;;;5017074;28;20367;-59
2021/01/14 13:00:23;;;;;;;;;;;;;;;;;;5017150;28;19957;-59
2021/01/14 13:02:49;;;;;;;;;;;;;;;;;;5017334;28;19917;-59
2021/01/14 13:05:18;;;;;;;;;;;;;;;;;;5017111;28;19917;-59
2021/01/14 13:07:44;;;;;;;;;;;;;;;;;;5017273;28;19916;-59
2021/01/14 13:10:10;;;;;;;;;;;;;;;;;;5016995;28;20004;-59
2021/01/14 13:12:36;;;;;;;;;;;;;;;;;;5030837;28;19960;-58
2021/01/14 13:15:02;;;;;;;;;;;;;;;;;;5036555;28;19913;-59
2021/01/14 13:17:28;;;;;;;;;;;;;;;;;;5036717;28;19920;-59
2021/01/14 13:19:54;;;;;;;;;;;;;;;;;;5036815;28;19917;-59
2021/01/14 13:22:20;;;;;;;;;;;;;;;;;;5036780;28;19917;-59
2021/01/14 13:24:46;;;;;;;;;;;;;;;;;;5036370;28;19909;-58
2021/01/14 13:27:14;;;;;;;;;;;;;;;;;;5036213;28;19909;-59
2021/01/14 13:29:39;;;;;;;;;;;;;;;;;;5031921;28;19913;-58
2021/01/14 13:32:05;;;;;;;;;;;;;;;;;;5027619;28;19910;-58
2021/01/14 13:34:31;;;;;;;;;;;;;;;;;;5016437;28;19948;-59
2021/01/14 13:36:57;;;;;;;;;;;;;;;;;;5016784;28;19957;-59
2021/01/14 13:39:23;;;;;;;;;;;;;;;;;;5016375;28;19913;-58
2021/01/14 13:41:49;;;;;;;;;;;;;;;;;;5016213;28;20105;-59
2021/01/14 13:44:15;;;;;;;;;;;;;;;;;;5016472;28;19956;-58
2021/01/14 13:46:41;;;;;;;;;;;;;;;;;;5016473;28;19909;-58
2021/01/14 13:49:07;;;;;;;;;;;;;;;;;;5016465;28;20262;-58
2021/01/14 13:51:33;;;;;;;;;;;;;;;;;;5016255;28;19916;-58
2021/01/14 13:53:59;;;;;;;;;;;;;;;;;;5016155;28;20096;-59
2021/01/14 13:56:26;;;;;;;;;;;;;;;;;;5016056;28;19910;-59
2021/01/14 13:58:51;;;;;;;;;;;;;;;;;;5015810;28;20362;-58
2021/01/14 14:01:17;;;;;;;;;;;;;;;;;;5016163;28;19918;-59
2021/01/14 14:03:43;;;;;;;;;;;;;;;;;;5014861;28;20381;-58
2021/01/14 14:06:09;;;;;;;;;;;;;;;;;;5015846;28;19917;-59
2021/01/14 14:08:35;;;;;;;;;;;;;;;;;;5015927;28;19910;-59
2021/01/14 14:11:01;;;;;;;;;;;;;;;;;;5015882;28;20044;-59
2021/01/14 14:13:28;;;;;;;;;;;;;;;;;;5015990;28;19909;-59
2021/01/14 14:15:54;;;;;;;;;;;;;;;;;;5026924;28;19921;-59
2021/01/14 14:18:20;;;;;;;;;;;;;;;;;;5035608;28;20277;-58
2021/01/14 14:20:46;;;;;;;;;;;;;;;;;;5035299;28;19917;-58
2021/01/14 14:23:12;;;;;;;;;;;;;;;;;;5019694;28;19917;-59
2021/01/14 14:25:38;;;;;;;;;;;;;;;;;;5026629;28;20282;-59
2021/01/14 14:28:04;;;;;;;;;;;;;;;;;;5033609;28;19952;-58
2021/01/14 14:30:30;;;;;;;;;;;;;;;;;;5035162;28;20325;-59
2021/01/14 14:32:56;;;;;;;;;;;;;;;;;;5035285;28;19915;-59
2021/01/14 14:35:22;;;;;;;;;;;;;;;;;;5035121;28;19909;-59
2021/01/14 14:37:48;;;;;;;;;;;;;;;;;;5035034;28;20349;-59
2021/01/14 14:40:14;;;;;;;;;;;;;;;;;;5034707;28;19921;-59
2021/01/14 14:42:40;;;;;;;;;;;;;;;;;;5035089;28;19916;-58
2021/01/14 14:45:06;;;;;;;;;;;;;;;;;;5017242;28;20325;-59
2021/01/14 14:47:32;;;;;;;;;;;;;;;;;;5035192;28;19912;-58
2021/01/14 14:49:58;;;;;;;;;;;;;;;;;;5034693;28;19909;-59
2021/01/14 14:52:24;;;;;;;;;;;;;;;;;;5034860;28;20000;-59
2021/01/14 14:54:50;;;;;;;;;;;;;;;;;;5034971;28;19909;-59
2021/01/14 14:57:15;;;;;;;;;;;;;;;;;;5035046;28;19972;-59
2021/01/14 14:59:41;;;;;;;;;;;;;;;;;;5034828;28;19925;-58
2021/01/14 15:02:07;;;;;;;;;;;;;;;;;;5034622;28;20433;-59
2021/01/14 15:04:35;;;;;;;;;;;;;;;;;;5034883;28;19912;-59
2021/01/14 15:07:01;;;;;;;;;;;;;;;;;;5034529;28;19909;-59
2021/01/14 15:09:27;;;;;;;;;;;;;;;;;;5034889;28;19995;-59
2021/01/14 15:11:53;;;;;;;;;;;;;;;;;;5034407;28;19951;-58
2021/01/14 15:14:19;;;;;;;;;;;;;;;;;;5034627;28;20339;-59
2021/01/14 15:16:45;;;;;;;;;;;;;;;;;;5034376;28;19955;-59
2021/01/14 15:19:11;;;;;;;;;;;;;;;;;;5034168;28;19912;-58
2021/01/14 15:21:37;;;;;;;;;;;;;;;;;;5034287;28;19909;-59
2021/01/14 15:24:03;;;;;;;;;;;;;;;;;;5034118;28;19913;-59
2021/01/14 15:26:29;;;;;;;;;;;;;;;;;;5034410;28;20385;-59
2021/01/14 15:28:55;;;;;;;;;;;;;;;;;;5034182;28;19931;-58
2021/01/14 15:31:21;;;;;;;;;;;;;;;;;;5034286;28;19909;-59
2021/01/14 15:33:47;;;;;;;;;;;;;;;;;;5034140;28;20325;-59
2021/01/14 15:36:16;;;;;;;;;;;;;;;;;;5034273;28;19909;-59
2021/01/14 15:38:42;;;;;;;;;;;;;;;;;;5034214;28;19909;-59
2021/01/14 15:41:08;;;;;;;;;;;;;;;;;;5033880;28;20373;-59
2021/01/14 15:43:34;;;;;;;;;;;;;;;;;;5033881;28;19967;-59
2021/01/14 15:46:00;;;;;;;;;;;;;;;;;;5032938;28;19949;-59
2021/01/14 15:48:26;;;;;;;;;;;;;;;;;;5033262;28;19913;-59
2021/01/14 15:50:52;;;;;;;;;;;;;;;;;;5033679;28;20048;-58
2021/01/14 15:53:20;;;;;;;;;;;;;;;;;;5033763;28;20263;-59
2021/01/14 15:55:46;;;;;;;;;;;;;;;;;;5033680;28;19909;-59
2021/01/14 15:58:12;;;;;;;;;;;;;;;;;;5033775;28;19916;-59
2021/01/14 16:00:37;;;;;;;;;;;;;;;;;;5033421;28;19924;-59
2021/01/14 16:03:03;;;;;;;;;;;;;;;;;;5033493;28;19972;-59
2021/01/14 16:05:29;;;;;;;;;;;;;;;;;;5033411;28;20089;-59
2021/01/14 16:07:55;;;;;;;;;;;;;;;;;;5033488;28;19996;-59
2021/01/14 16:10:21;;;;;;;;;;;;;;;;;;5033931;28;19909;-59
2021/01/14 16:12:47;;;;;;;;;;;;;;;;;;5033362;28;20007;-59
2021/01/14 16:15:13;;;;;;;;;;;;;;;;;;5033206;28;19910;-59
2021/01/14 16:17:39;;;;;;;;;;;;;;;;;;5026888;28;19965;-58
2021/01/14 16:20:05;;;;;;;;;;;;;;;;;;5014823;28;20339;-58
2021/01/14 16:22:32;;;;;;;;;;;;;;;;;;5031773;28;20347;-58
2021/01/14 16:24:58;;;;;;;;;;;;;;;;;;5033216;28;20366;-58
2021/01/14 16:27:24;;;;;;;;;;;;;;;;;;5036168;28;19959;-58
2021/01/14 16:29:50;;;;;;;;;;;;;;;;;;5030977;28;20255;-59
2021/01/14 16:32:16;;;;;;;;;;;;;;;;;;5025423;28;19916;-58
2021/01/14 16:34:42;;;;;;;;;;;;;;;;;;5017608;28;19909;-58
2021/01/14 16:37:08;;;;;;;;;;;;;;;;;;5017444;28;19909;-58
2021/01/14 16:39:34;;;;;;;;;;;;;;;;;;5017253;28;20011;-58